createdAt,value
2023-02-16T00:01:25.125Z,101364.97
2023-02-16T00:06:29.212Z,101365.66
2023-02-16T00:11:51.833Z,101352.88
2023-02-16T00:16:56.888Z,101349.50
2023-02-16T00:22:00.988Z,101343.16
2023-02-16T00:27:03.784Z,101345.75
2023-02-16T00:32:08.097Z,101337.97
2023-02-16T00:37:14.358Z,101339.22
2023-02-16T00:42:19.878Z,101327.13
2023-02-16T00:47:27.326Z,101329.25
2023-02-16T00:52:34.825Z,101324.56
2023-02-16T00:57:41.158Z,101314.28
2023-02-16T01:02:47.223Z,101320.91
2023-02-16T01:08:07.420Z,101309.31
2023-02-16T01:13:10.474Z,101309.97
2023-02-16T01:18:16.745Z,101306.59
2023-02-16T01:23:19.506Z,101306.69
2023-02-16T01:28:23.889Z,101304.75
2023-02-16T01:33:28.007Z,101296.97
2023-02-16T01:38:30.798Z,101291.47
2023-02-16T01:43:43.240Z,101294.34
2023-02-16T01:48:47.316Z,101297.09
2023-02-16T01:53:52.497Z,101299.44
2023-02-16T01:58:58.054Z,101289.94
2023-02-16T02:04:19.908Z,101276.69
2023-02-16T02:09:27.154Z,101279.16
2023-02-16T02:14:31.872Z,101275.56
2023-02-16T02:19:46.539Z,101278.50
2023-02-16T02:25:05.869Z,101273.16
2023-02-16T02:30:28.419Z,101273.31
2023-02-16T02:35:39.930Z,101274.31
2023-02-16T02:40:51.028Z,101283.84
2023-02-16T02:45:57.585Z,101275.22
2023-02-16T02:51:20.074Z,101274.31
2023-02-16T02:56:41.718Z,101271.78
2023-02-16T03:01:50.841Z,101265.41
2023-02-16T03:06:56.792Z,101264.75
2023-02-16T03:12:18.564Z,101262.81
2023-02-16T03:17:41.983Z,101263.22
2023-02-16T03:23:03.045Z,101252.03
2023-02-16T03:28:24.434Z,101254.09
2023-02-16T03:33:29.073Z,101250.69
2023-02-16T03:38:32.256Z,101254.34
2023-02-16T03:43:35.348Z,101252.13
2023-02-16T03:48:39.383Z,101247.06
2023-02-16T03:53:42.106Z,101253.06
2023-02-16T03:58:44.838Z,101263.47
2023-02-16T04:03:48.932Z,101249.88
2023-02-16T04:08:52.925Z,101238.47
2023-02-16T04:13:55.732Z,101240.78
2023-02-16T04:18:59.778Z,101228.16
2023-02-16T04:24:02.542Z,101241.69
2023-02-16T04:29:05.202Z,101241.94
2023-02-16T04:34:09.187Z,101244.16
2023-02-16T04:39:11.949Z,101236.59
2023-02-16T04:44:14.640Z,101240.91
2023-02-16T04:49:18.927Z,101243.75
2023-02-16T04:54:22.248Z,101251.44
2023-02-16T04:59:24.990Z,101251.97
2023-02-16T05:04:29.621Z,101247.09
2023-02-16T05:09:32.314Z,101230.47
2023-02-16T05:14:45.983Z,101237.91
2023-02-16T05:19:51.783Z,101241.50
2023-02-16T05:24:54.455Z,101234.88
2023-02-16T05:29:58.055Z,101233.22
2023-02-16T05:35:02.189Z,101228.09
2023-02-16T05:40:05.328Z,101229.00
2023-02-16T05:45:08.747Z,101225.88
2023-02-16T05:50:13.321Z,101221.75
2023-02-16T05:55:16.271Z,101227.34
2023-02-16T06:00:19.474Z,101227.22
2023-02-16T06:05:23.636Z,101238.09
2023-02-16T06:10:26.947Z,101240.97
2023-02-16T06:15:29.602Z,101232.63
2023-02-16T06:20:33.649Z,101239.94
2023-02-16T06:25:37.443Z,101227.81
2023-02-16T06:30:42.516Z,101240.19
2023-02-16T06:35:46.649Z,101238.38
2023-02-16T06:40:49.360Z,101233.38
2023-02-16T06:45:52.144Z,101249.81
2023-02-16T06:50:56.355Z,101248.38
2023-02-16T06:55:59.057Z,101264.09
2023-02-16T07:01:02.008Z,101263.50
2023-02-16T07:06:06.999Z,101269.31
2023-02-16T07:11:09.697Z,101272.75
2023-02-16T07:16:12.988Z,101269.63
2023-02-16T07:21:17.108Z,101274.13
2023-02-16T07:26:19.868Z,101280.91
2023-02-16T07:31:26.252Z,101283.13
2023-02-16T07:36:30.492Z,101289.72
2023-02-16T07:41:33.673Z,101286.19
2023-02-16T07:46:43.156Z,101286.97
2023-02-16T07:51:47.256Z,101305.63
2023-02-16T07:56:49.972Z,101311.31
2023-02-16T08:01:52.819Z,101307.16
2023-02-16T08:06:57.060Z,101285.56
2023-02-16T08:11:59.982Z,101283.25
2023-02-16T08:17:02.785Z,101284.81
2023-02-16T08:22:07.912Z,101286.75
2023-02-16T08:27:12.518Z,101304.78
2023-02-16T08:32:16.534Z,101294.03
2023-02-16T08:37:21.114Z,101298.56
2023-02-16T08:42:24.092Z,101279.09
2023-02-16T08:47:26.978Z,101281.41
2023-02-16T08:52:31.253Z,101280.75
2023-02-16T08:57:35.067Z,101289.41
2023-02-16T09:02:38.045Z,101287.69
2023-02-16T09:07:42.827Z,101288.16
2023-02-16T09:12:48.521Z,101277.88
2023-02-16T09:17:51.510Z,101271.19
2023-02-16T09:22:55.653Z,101272.53
2023-02-16T09:27:59.505Z,101270.41
2023-02-16T09:33:03.080Z,101286.88
2023-02-16T09:38:07.919Z,101281.13
2023-02-16T09:43:17.907Z,101279.63
2023-02-16T09:48:27.792Z,101287.41
2023-02-16T09:53:37.105Z,101272.78
2023-02-16T09:58:45.720Z,101280.50
2023-02-16T10:03:56.887Z,101278.97
2023-02-16T10:09:05.646Z,101292.28
2023-02-16T10:14:15.053Z,101296.38
2023-02-16T10:19:21.609Z,101293.25
2023-02-16T10:24:27.088Z,101291.44
2023-02-16T10:29:29.906Z,101303.41
2023-02-16T10:34:41.676Z,101305.19
2023-02-16T10:39:49.533Z,101301.78
2023-02-16T10:44:56.824Z,101304.59
2023-02-16T10:49:59.723Z,101294.34
2023-02-16T10:55:04.381Z,101295.06
2023-02-16T11:00:11.556Z,101295.50
2023-02-16T11:05:36.342Z,101277.91
2023-02-16T11:10:48.226Z,101279.31
2023-02-16T11:15:54.510Z,101276.44
2023-02-16T11:21:01.095Z,101277.94
2023-02-16T11:26:09.368Z,101281.88
2023-02-16T11:31:19.173Z,101266.56
2023-02-16T11:36:33.420Z,101278.00
2023-02-16T11:41:38.480Z,101276.94
2023-02-16T11:46:41.765Z,101266.19
2023-02-16T11:51:44.726Z,101273.34
2023-02-16T11:57:02.434Z,101250.78
2023-02-16T12:02:35.916Z,101252.56
2023-02-16T12:07:41.689Z,101258.00
2023-02-16T12:12:51.535Z,101247.31
2023-02-16T12:18:10.283Z,101253.41
2023-02-16T12:23:23.701Z,101249.34
2023-02-16T12:28:35.875Z,101244.97
2023-02-16T12:33:43.525Z,101241.44
2023-02-16T12:38:51.991Z,101233.34
2023-02-16T12:43:58.729Z,101228.31
2023-02-16T12:49:05.137Z,101219.56
2023-02-16T12:54:10.966Z,101214.22
2023-02-16T12:59:18.881Z,101206.16
2023-02-16T13:04:26.263Z,101203.72
2023-02-16T13:09:35.845Z,101209.66
2023-02-16T13:14:43.750Z,101208.56
2023-02-16T13:19:48.003Z,101200.06
2023-02-16T13:24:59.129Z,101197.06
2023-02-16T13:30:35.250Z,101186.78
2023-02-16T13:35:49.201Z,101179.72
2023-02-16T13:41:13.532Z,101170.75
2023-02-16T13:46:22.194Z,101162.31
2023-02-16T13:51:27.341Z,101151.78
2023-02-16T13:56:36.453Z,101150.34
2023-02-16T14:01:43.259Z,101129.84
2023-02-16T14:06:46.324Z,101122.06
2023-02-16T14:12:15.395Z,101107.72
2023-02-16T14:17:25.645Z,101097.09
2023-02-16T14:22:34.826Z,101089.75
2023-02-16T14:27:44.636Z,101088.84
2023-02-16T14:32:53.460Z,101092.28
2023-02-16T14:37:58.378Z,101108.97
2023-02-16T14:43:05.358Z,101095.38
2023-02-16T14:48:19.237Z,101100.66
2023-02-16T14:53:55.911Z,101097.56
2023-02-16T14:59:01.529Z,101102.84
2023-02-16T15:04:05.766Z,101099.47
2023-02-16T15:09:16.491Z,101093.31
2023-02-16T15:14:19.196Z,101094.88
2023-02-16T15:19:27.888Z,101077.84
2023-02-16T15:24:31.209Z,101089.34
2023-02-16T15:29:34.140Z,101090.78
2023-02-16T15:34:39.398Z,101080.91
2023-02-16T15:39:56.015Z,101082.38
2023-02-16T15:45:25.583Z,101083.97
2023-02-16T15:50:30.348Z,101078.84
2023-02-16T15:55:33.422Z,101079.00
2023-02-16T16:00:36.163Z,101062.94
2023-02-16T16:05:42.162Z,101053.63
2023-02-16T16:10:46.524Z,101071.03
2023-02-16T16:15:50.206Z,101080.81
2023-02-16T16:21:00.745Z,101079.19
2023-02-16T16:26:03.747Z,101083.44
2023-02-16T16:31:08.782Z,101090.13
2023-02-16T16:36:13.814Z,101081.63
2023-02-16T16:41:27.656Z,101087.50
2023-02-16T16:46:30.985Z,101083.69
2023-02-16T16:51:41.731Z,101078.34
2023-02-16T16:56:44.420Z,101074.81
2023-02-16T17:01:49.887Z,101072.19
2023-02-16T17:06:53.949Z,101061.88
2023-02-16T17:11:56.710Z,101060.88
2023-02-16T17:16:59.682Z,101059.88
2023-02-16T17:22:12.637Z,101056.94
2023-02-16T17:27:15.496Z,101050.78
2023-02-16T17:32:19.125Z,101050.72
2023-02-16T17:37:24.285Z,101050.50
2023-02-16T17:42:28.249Z,101041.09
2023-02-16T17:47:31.052Z,101035.72
2023-02-16T17:52:39.439Z,101039.16
2023-02-16T17:57:42.337Z,101033.91
2023-02-16T18:02:45.070Z,101037.88
2023-02-16T18:07:49.562Z,101039.69
2023-02-16T18:12:52.398Z,101033.91
2023-02-16T18:17:55.522Z,101032.09
2023-02-16T18:22:59.885Z,101032.09
2023-02-16T18:28:02.810Z,101030.31
2023-02-16T18:33:05.526Z,101025.78
2023-02-16T18:38:09.859Z,101021.44
2023-02-16T18:43:12.651Z,101020.25
2023-02-16T18:48:15.408Z,101015.75
2023-02-16T18:53:19.512Z,101015.66
2023-02-16T18:58:22.226Z,101008.38
2023-02-16T19:03:25.272Z,101009.59
2023-02-16T19:08:29.379Z,101014.28
2023-02-16T19:13:32.067Z,100999.50
2023-02-16T19:18:34.861Z,101027.25
2023-02-16T19:23:38.996Z,101029.91
2023-02-16T19:28:44.901Z,101023.44
2023-02-16T19:33:47.921Z,101033.25
2023-02-16T19:38:54.050Z,101020.38
2023-02-16T19:43:57.161Z,101016.13
2023-02-16T19:49:00.121Z,101015.41
2023-02-16T19:54:04.442Z,101003.72
2023-02-16T19:59:07.464Z,100999.88
2023-02-16T20:04:12.616Z,101004.72
2023-02-16T20:09:17.660Z,101013.31
2023-02-16T20:14:20.404Z,100999.25
2023-02-16T20:19:23.242Z,100984.75
2023-02-16T20:24:27.356Z,100990.63
2023-02-16T20:29:30.084Z,100998.06
2023-02-16T20:34:33.457Z,100993.81
2023-02-16T20:39:37.630Z,100995.94
2023-02-16T20:44:40.670Z,100990.94
2023-02-16T20:49:43.601Z,100980.31
2023-02-16T20:54:47.720Z,100984.56
2023-02-16T20:59:50.756Z,100987.06
2023-02-16T21:04:53.596Z,100982.63
2023-02-16T21:09:58.678Z,100982.47
2023-02-16T21:15:01.388Z,100978.13
2023-02-16T21:20:04.325Z,100983.38
2023-02-16T21:25:09.587Z,100985.09
2023-02-16T21:30:13.588Z,100987.63
2023-02-16T21:35:16.382Z,100977.69
2023-02-16T21:40:38.174Z,100979.19
2023-02-16T21:45:40.868Z,100962.53
2023-02-16T21:50:43.607Z,100947.91
2023-02-16T21:56:05.398Z,100932.22
2023-02-16T22:01:08.452Z,100937.56
2023-02-16T22:06:11.716Z,100942.09
2023-02-16T22:11:15.735Z,100935.94
2023-02-16T22:16:20.192Z,100949.88
2023-02-16T22:21:25.463Z,100940.91
2023-02-16T22:26:31.075Z,100933.56
2023-02-16T22:31:33.837Z,100925.16
2023-02-16T22:36:37.597Z,100935.00
2023-02-16T22:41:41.652Z,100931.59
2023-02-16T22:46:44.493Z,100953.91
2023-02-16T22:51:47.219Z,100947.38
2023-02-16T22:56:51.302Z,100948.28
2023-02-16T23:01:53.977Z,100942.91
2023-02-16T23:06:56.661Z,100953.41
2023-02-16T23:12:00.786Z,100961.28
2023-02-16T23:17:03.543Z,100969.28
2023-02-16T23:22:06.174Z,100970.28
2023-02-16T23:27:10.171Z,100971.28
2023-02-16T23:32:12.834Z,100960.50
2023-02-16T23:37:15.531Z,100969.09
2023-02-16T23:42:19.485Z,100926.97
2023-02-16T23:47:22.536Z,100926.00
2023-02-16T23:52:25.254Z,100929.16
2023-02-16T23:57:29.336Z,100929.41
